Time;durP1;ratioP1;P1;durP2;ratioP2;P2;SDS_P1;SDS_P2;PMS_P1;PMS_P2;Temp;Humidity;BMP_temperature;BMP_pressure;BME280_temperature;BME280_humidity;BME280_pressure;Samples;Min_cycle;Max_cycle;Signal;HPM_P1;HPM_P2
2022/09/29 00:00:38;;;;;;;3.43;0.60;;;19.60;99.90;;;;;;5073154;28;20370;-81
2022/09/29 00:03:06;;;;;;;4.35;0.68;;;19.50;99.90;;;;;;5073069;28;20766;-82
2022/09/29 00:05:33;;;;;;;2.83;0.60;;;19.60;99.90;;;;;;5074665;28;20366;-81
2022/09/29 00:08:00;;;;;;;5.20;1.00;;;19.50;99.90;;;;;;5075037;28;20406;-81
2022/09/29 00:10:27;;;;;;;7.03;0.90;;;19.50;99.90;;;;;;5073340;28;20858;-84
2022/09/29 00:12:54;;;;;;;2.30;0.60;;;19.50;99.90;;;;;;5055047;28;20844;-80
2022/09/29 00:15:21;;;;;;;4.30;0.90;;;19.60;99.90;;;;;;5047773;28;20374;-83
2022/09/29 00:17:48;;;;;;;3.33;0.60;;;19.90;99.90;;;;;;5076154;28;20405;-83
2022/09/29 00:20:15;;;;;;;8.43;1.10;;;20.10;99.90;;;;;;5074672;28;20774;-84
2022/09/29 00:22:42;;;;;;;7.05;0.65;;;20.60;99.90;;;;;;5073831;28;20409;-85
2022/09/29 00:25:12;;;;;;;6.88;0.80;;;20.70;98.70;;;;;;5072368;28;20465;-83
2022/09/29 00:27:39;;;;;;;6.60;0.82;;;20.60;98.90;;;;;;5072270;28;20382;-82
2022/09/29 00:30:06;;;;;;;5.43;0.98;;;20.40;99.30;;;;;;5072376;28;20428;-83
2022/09/29 00:32:33;;;;;;;3.97;1.00;;;20.30;99.70;;;;;;5072856;28;20369;-83
2022/09/29 00:35:00;;;;;;;7.65;1.30;;;20.20;99.90;;;;;;5072386;28;20424;-83
2022/09/29 00:37:27;;;;;;;7.03;1.00;;;20.20;99.90;;;;;;5071612;28;20420;-85
2022/09/29 00:39:54;;;;;;;5.53;0.75;;;20.30;99.90;;;;;;5072150;28;20382;-84
2022/09/29 00:42:21;;;;;;;7.72;1.00;;;20.50;99.50;;;;;;5072542;28;20436;-84
2022/09/29 00:45:04;;;;;;;1.42;0.30;;;20.80;99.00;;;;;;5072003;28;20429;-83
2022/09/29 00:47:36;;;;;;;4.35;0.63;;;20.70;99.20;;;;;;5073143;28;20424;-83
2022/09/29 00:50:15;;;;;;;4.57;0.70;;;20.70;98.10;;;;;;5081343;28;20390;-81
2022/09/29 00:52:49;;;;;;;1.67;0.40;;;20.50;98.10;;;;;;5079866;28;20373;-78
2022/09/29 00:55:25;;;;;;;6.68;0.85;;;20.40;99.60;;;;;;5073361;28;20487;-83
2022/09/29 00:58:02;;;;;;;6.47;0.70;;;20.50;99.70;;;;;;5072359;28;20409;-80
2022/09/29 01:00:29;;;;;;;9.93;1.10;;;20.50;98.60;;;;;;5071696;28;20696;-84
2022/09/29 01:03:08;;;;;;;6.35;0.90;;;20.30;98.40;;;;;;5072253;28;20913;-82
2022/09/29 01:05:40;;;;;;;5.28;0.70;;;20.40;98.80;;;;;;5071824;28;20469;-83
2022/09/29 01:08:23;;;;;;;10.82;0.85;;;20.60;97.40;;;;;;5072404;28;20370;-84
2022/09/29 01:10:51;;;;;;;8.25;0.73;;;20.70;97.20;;;;;;5072420;28;20377;-84
2022/09/29 01:13:19;;;;;;;8.02;0.93;;;20.70;96.40;;;;;;5072981;28;20385;-81
2022/09/29 01:15:46;;;;;;;4.15;0.73;;;20.70;96.50;;;;;;5074288;28;20382;-83
2022/09/29 01:18:13;;;;;;;9.45;0.90;;;20.60;95.80;;;;;;5076284;28;20893;-83
2022/09/29 01:21:04;;;;;;;4.10;0.68;;;20.70;96.70;;;;;;5055567;28;20487;-84
2022/09/29 01:23:54;;;;;;;9.23;1.30;;;20.90;97.00;;;;;;5057788;28;20377;-83
2022/09/29 01:27:05;;;;;;;1.35;0.40;;;21.80;96.50;;;;;;5070228;28;20419;-82
2022/09/29 01:29:37;;;;;;;1.75;0.30;;;22.10;94.00;;;;;;4979428;28;20373;-84
2022/09/29 01:32:31;;;;;;;6.53;0.70;;;21.70;94.50;;;;;;4988948;28;20381;-83
2022/09/29 01:35:31;;;;;;;14.48;1.38;;;20.70;96.30;;;;;;4988854;28;20381;-83
2022/09/29 01:38:15;;;;;;;3.47;0.50;;;20.30;99.50;;;;;;4989033;28;20417;-84
2022/09/29 01:40:53;;;;;;;0.90;0.40;;;19.90;99.90;;;;;;4972198;28;20423;-82
2022/09/29 01:43:31;;;;;;;1.60;0.40;;;20.30;99.50;;;;;;4985576;28;20387;-83
2022/09/29 01:46:03;;;;;;;1.13;0.40;;;21.50;97.30;;;;;;4988611;28;20467;-84
2022/09/29 01:48:35;;;;;;;2.60;0.50;;;21.80;95.90;;;;;;4988723;28;20400;-83
2022/09/29 01:51:11;;;;;;;1.15;0.40;;;22.70;94.10;;;;;;4987729;28;20397;-83
2022/09/29 01:53:49;;;;;;;1.60;0.30;;;23.50;91.70;;;;;;4988381;28;20408;-84
2022/09/29 01:56:49;;;;;;;1.97;0.30;;;24.10;90.60;;;;;;4975990;28;20380;-83
2022/09/29 01:59:25;;;;;;;1.40;0.30;;;24.50;87.00;;;;;;5007033;28;20477;-84
2022/09/29 02:01:59;;;;;;;1.67;0.40;;;23.80;86.20;;;;;;5060694;28;20922;-82
2022/09/29 02:04:50;;;;;;;3.60;0.50;;;23.00;89.50;;;;;;5069931;28;20912;-82
2022/09/29 02:07:27;;;;;;;7.43;0.90;;;23.20;90.50;;;;;;5052454;28;20401;-84
2022/09/29 02:10:03;;;;;;;12.88;1.02;;;23.00;90.90;;;;;;5059317;28;20389;-84
2022/09/29 02:12:34;;;;;;;1.40;0.40;;;22.80;92.20;;;;;;5077181;28;20389;-84
2022/09/29 02:15:06;;;;;;;2.40;0.43;;;23.80;89.20;;;;;;5070693;28;20380;-83
2022/09/29 02:17:37;;;;;;;2.67;0.40;;;23.70;87.90;;;;;;5068666;28;20742;-82
2022/09/29 02:20:05;;;;;;;8.50;1.00;;;23.50;86.90;;;;;;5055646;28;20397;-84
2022/09/29 02:22:33;;;;;;;5.70;0.60;;;23.40;85.70;;;;;;5062691;28;20389;-83
2022/09/29 02:25:02;;;;;;;0.68;0.30;;;24.10;85.00;;;;;;5066016;28;20406;-84
2022/09/29 02:27:29;;;;;;;3.10;0.60;;;24.40;80.90;;;;;;5068006;28;20448;-82
2022/09/29 02:29:58;;;;;;;3.45;0.40;;;23.60;82.20;;;;;;5069678;28;20394;-83
2022/09/29 02:32:25;;;;;;;7.68;0.90;;;22.60;87.10;;;;;;5055492;28;20424;-84
2022/09/29 02:34:54;;;;;;;5.00;0.75;;;21.60;93.30;;;;;;5056464;28;20394;-83
2022/09/29 02:37:57;;;;;;;3.97;0.70;;;21.20;96.60;;;;;;5073117;28;20450;-83
2022/09/29 02:40:36;;;;;;;5.25;0.55;;;22.30;94.60;;;;;;5073277;28;20378;-81
2022/09/29 02:43:17;;;;;;;6.93;0.65;;;22.70;90.40;;;;;;5073319;28;20741;-82
2022/09/29 02:46:00;;;;;;;1.73;0.50;;;22.10;91.30;;;;;;5075941;28;20398;-82
2022/09/29 02:48:55;;;;;;;1.73;0.40;;;22.20;91.40;;;;;;5081396;28;20827;-82
2022/09/29 02:51:38;;;;;;;3.63;0.50;;;22.10;91.70;;;;;;5061266;28;20466;-82
2022/09/29 02:54:18;;;;;;;6.25;0.75;;;21.90;93.00;;;;;;5073005;28;20402;-81
2022/09/29 02:57:00;;;;;;;3.20;0.55;;;22.10;93.50;;;;;;5072307;28;20394;-84
2022/09/29 02:59:52;;;;;;;5.22;0.73;;;22.20;92.70;;;;;;5073240;28;20901;-84
2022/09/29 03:02:26;;;;;;;3.45;0.50;;;23.00;92.00;;;;;;5071714;28;20847;-85
2022/09/29 03:04:53;;;;;;;2.38;0.50;;;24.00;88.60;;;;;;5072912;28;20497;-84
2022/09/29 03:07:21;;;;;;;3.55;0.57;;;23.50;85.00;;;;;;5073503;28;20435;-83
2022/09/29 03:09:48;;;;;;;2.78;0.65;;;22.80;88.10;;;;;;5073169;28;20388;-87
2022/09/29 03:12:17;;;;;;;5.90;0.75;;;23.70;87.10;;;;;;5071094;28;20870;-82
2022/09/29 03:14:44;;;;;;;6.90;0.80;;;24.30;83.90;;;;;;5072523;28;20397;-82
2022/09/29 03:17:11;;;;;;;4.53;0.90;;;24.20;81.80;;;;;;5072872;28;21141;-87
2022/09/29 03:19:38;;;;;;;3.95;0.80;;;23.00;85.00;;;;;;5072684;28;20493;-84
2022/09/29 03:22:05;;;;;;;5.07;0.73;;;22.20;89.00;;;;;;5073355;28;20382;-84
2022/09/29 03:24:32;;;;;;;3.28;0.80;;;22.00;91.40;;;;;;5073186;28;20378;-84
2022/09/29 03:26:59;;;;;;;5.93;1.00;;;22.00;91.80;;;;;;5037972;28;20374;-80
2022/09/29 03:29:26;;;;;;;4.72;0.85;;;22.00;91.90;;;;;;5078913;28;20403;-83
2022/09/29 03:31:53;;;;;;;2.55;0.80;;;22.50;92.10;;;;;;5078564;28;20413;-82
2022/09/29 03:34:20;;;;;;;2.42;0.80;;;22.90;91.60;;;;;;5079134;28;20366;-84
2022/09/29 03:36:47;;;;;;;8.02;1.05;;;22.90;90.40;;;;;;5081431;28;20374;-85
2022/09/29 03:39:14;;;;;;;16.23;1.45;;;22.50;90.80;;;;;;5067827;28;20402;-82
2022/09/29 03:41:41;;;;;;;6.45;0.93;;;21.80;95.00;;;;;;5079933;28;20375;-81
2022/09/29 03:44:08;;;;;;;6.85;0.57;;;21.70;94.60;;;;;;5080490;28;20473;-84
2022/09/29 03:46:35;;;;;;;3.63;0.50;;;21.90;94.60;;;;;;5086903;28;20366;-82
2022/09/29 03:49:02;;;;;;;6.47;0.80;;;22.60;93.50;;;;;;5086855;28;20408;-83
2022/09/29 03:51:30;;;;;;;8.63;0.90;;;23.60;92.20;;;;;;5085431;28;20665;-81
2022/09/29 03:53:57;;;;;;;6.43;0.80;;;23.10;93.10;;;;;;5088025;28;20735;-83
2022/09/29 03:56:24;;;;;;;3.88;0.55;;;22.90;93.50;;;;;;5094836;28;20418;-83
2022/09/29 03:58:51;;;;;;;2.67;0.77;;;23.80;92.50;;;;;;5093290;28;20476;-83
2022/09/29 04:01:18;;;;;;;3.15;0.70;;;24.50;90.80;;;;;;5089774;28;20382;-83
2022/09/29 04:03:45;;;;;;;8.55;0.90;;;24.60;89.60;;;;;;5078228;28;20378;-82
2022/09/29 04:06:13;;;;;;;0.87;0.20;;;23.30;93.10;;;;;;5072714;28;20385;-84
2022/09/29 04:08:39;;;;;;;1.60;0.40;;;22.40;97.90;;;;;;5073483;28;20431;-83
2022/09/29 04:11:07;;;;;;;0.85;0.38;;;22.80;97.80;;;;;;5073254;28;20394;-84
2022/09/29 04:13:34;;;;;;;3.28;0.50;;;22.90;98.50;;;;;;5072909;28;20369;-83
2022/09/29 04:16:05;;;;;;;2.95;0.50;;;23.80;95.50;;;;;;5073882;28;20376;-83
2022/09/29 04:18:33;;;;;;;1.85;0.47;;;24.60;93.50;;;;;;5074556;28;20413;-84
2022/09/29 04:21:04;;;;;;;2.47;0.50;;;25.10;90.70;;;;;;5074176;28;20446;-83
2022/09/29 04:23:31;;;;;;;1.30;0.30;;;24.20;90.50;;;;;;5074264;28;20861;-83
2022/09/29 04:25:58;;;;;;;4.88;0.70;;;22.00;94.30;;;;;;5076696;28;20877;-83
2022/09/29 04:28:25;;;;;;;4.95;0.60;;;20.70;98.90;;;;;;5073019;28;20413;-82
2022/09/29 04:30:52;;;;;;;2.00;0.50;;;20.40;99.80;;;;;;5071856;28;20385;-85
2022/09/29 04:33:20;;;;;;;2.22;0.40;;;21.40;98.20;;;;;;5071451;28;20390;-83
2022/09/29 04:35:46;;;;;;;2.58;0.55;;;22.70;96.50;;;;;;5071187;28;20441;-84
2022/09/29 04:38:13;;;;;;;1.85;0.55;;;23.40;92.80;;;;;;5071158;28;20386;-87
2022/09/29 04:40:40;;;;;;;5.05;0.70;;;23.30;91.40;;;;;;5071018;28;20738;-85
2022/09/29 04:43:07;;;;;;;3.65;0.70;;;22.50;92.60;;;;;;5071135;28;20370;-84
2022/09/29 04:45:34;;;;;;;2.83;0.50;;;21.60;94.60;;;;;;5070701;28;20901;-84
2022/09/29 04:48:01;;;;;;;3.67;0.60;;;21.70;95.20;;;;;;5070890;28;20392;-85
2022/09/29 04:50:28;;;;;;;3.22;0.55;;;21.90;95.30;;;;;;5069007;28;20390;-80
2022/09/29 04:52:55;;;;;;;2.33;0.40;;;21.80;94.70;;;;;;5067018;28;20393;-81
2022/09/29 04:55:23;;;;;;;5.57;0.60;;;21.20;94.90;;;;;;5069189;28;20443;-83
2022/09/29 04:57:50;;;;;;;5.88;0.50;;;21.20;95.30;;;;;;5070278;28;20428;-85
2022/09/29 05:00:17;;;;;;;7.45;0.82;;;21.50;95.90;;;;;;5052696;28;20711;-84
2022/09/29 05:02:44;;;;;;;10.67;0.97;;;22.60;93.80;;;;;;5070599;28;20370;-84
2022/09/29 05:05:11;;;;;;;12.60;0.73;;;21.70;93.50;;;;;;5067020;28;20421;-83
2022/09/29 05:07:40;;;;;;;13.18;0.93;;;21.10;95.10;;;;;;5061374;28;20391;-82
2022/09/29 05:10:09;;;;;;;4.90;0.70;;;20.90;96.10;;;;;;5070123;28;20389;-85
2022/09/29 05:12:36;;;;;;;3.20;0.40;;;20.60;97.30;;;;;;5080049;28;20455;-84
2022/09/29 05:15:05;;;;;;;6.68;0.60;;;20.30;98.30;;;;;;5069848;28;20911;-81
2022/09/29 05:17:32;;;;;;;10.07;0.90;;;20.30;99.70;;;;;;5070556;28;20374;-86
2022/09/29 05:19:59;;;;;;;2.95;0.45;;;21.10;98.60;;;;;;5051672;28;20735;-85
2022/09/29 05:22:26;;;;;;;3.40;0.40;;;20.60;97.80;;;;;;5070172;28;20389;-84
2022/09/29 05:24:53;;;;;;;4.00;0.50;;;20.20;99.20;;;;;;5070793;28;20382;-82
2022/09/29 05:27:21;;;;;;;3.90;0.50;;;19.90;99.90;;;;;;5069023;28;20843;-85
2022/09/29 05:29:48;;;;;;;1.27;0.30;;;19.70;99.90;;;;;;5049488;28;20873;-83
2022/09/29 05:32:15;;;;;;;0.90;0.30;;;19.90;99.90;;;;;;5070429;28;20374;-85
2022/09/29 05:34:42;;;;;;;1.55;0.55;;;20.00;99.90;;;;;;5068565;28;20809;-83
2022/09/29 05:37:09;;;;;;;10.65;0.70;;;19.80;99.90;;;;;;5069093;28;20447;-81
2022/09/29 05:39:37;;;;;;;9.80;1.10;;;19.50;99.90;;;;;;5050354;28;20468;-84
2022/09/29 05:42:05;;;;;;;8.43;0.90;;;19.40;99.90;;;;;;5068170;28;20382;-83
2022/09/29 05:44:32;;;;;;;7.77;0.70;;;19.00;99.90;;;;;;5059798;28;20465;-83
2022/09/29 05:47:00;;;;;;;15.73;1.20;;;18.80;99.90;;;;;;5065553;28;20480;-82
2022/09/29 05:49:27;;;;;;;6.43;0.68;;;18.60;99.90;;;;;;5069737;28;20439;-82
2022/09/29 05:51:54;;;;;;;0.90;0.30;;;18.20;99.90;;;;;;5068278;28;20737;-83
2022/09/29 05:54:24;;;;;;;1.25;0.40;;;17.60;99.90;;;;;;5068617;28;20390;-84
2022/09/29 05:56:51;;;;;;;1.00;0.30;;;17.30;99.90;;;;;;5061389;28;20377;-78
2022/09/29 05:59:18;;;;;;;0.40;0.30;;;17.20;99.90;;;;;;5070253;28;20401;-81
2022/09/29 06:01:44;;;;;;;1.70;0.40;;;17.20;99.90;;;;;;5057520;28;20374;-80
2022/09/29 06:04:11;;;;;;;1.08;0.30;;;17.20;99.90;;;;;;5069673;28;20393;-81
2022/09/29 06:06:41;;;;;;;1.58;0.40;;;17.20;99.90;;;;;;5069297;28;20382;-82
2022/09/29 06:09:08;;;;;;;2.50;0.40;;;17.10;99.90;;;;;;5066869;28;20388;-81
2022/09/29 06:11:35;;;;;;;7.35;0.50;;;16.80;99.90;;;;;;5072710;28;20382;-80
2022/09/29 06:14:03;;;;;;;1.27;0.50;;;16.80;99.90;;;;;;5073668;28;20917;-80
2022/09/29 06:16:31;;;;;;;1.70;0.63;;;16.80;99.90;;;;;;5072211;28;20382;-81
2022/09/29 06:19:00;;;;;;;2.45;0.60;;;16.80;99.90;;;;;;5070476;28;20489;-83
2022/09/29 06:21:28;;;;;;;1.85;0.60;;;16.80;99.90;;;;;;5065299;28;20377;-82
2022/09/29 06:23:56;;;;;;;6.93;0.73;;;16.80;99.90;;;;;;5065394;28;20392;-80
2022/09/29 06:26:25;;;;;;;1.92;0.70;;;16.70;99.90;;;;;;5054498;28;20730;-80
2022/09/29 06:28:53;;;;;;;7.13;0.95;;;16.50;99.90;;;;;;5072844;28;20405;-78
2022/09/29 06:31:23;;;;;;;2.97;0.60;;;16.20;99.90;;;;;;5072835;28;20893;-81
2022/09/29 06:33:50;;;;;;;1.45;0.60;;;15.90;99.90;;;;;;5072457;28;20802;-80
2022/09/29 06:39:09;;;;;;;1.70;0.60;;;15.50;99.90;;;;;;5074968;28;20469;-78
2022/09/29 06:41:36;;;;;;;3.92;0.60;;;15.40;99.90;;;;;;5073768;28;20727;-75
2022/09/29 06:44:04;;;;;;;1.90;0.60;;;15.50;99.90;;;;;;5074522;28;20405;-76
2022/09/29 06:46:31;;;;;;;7.85;0.88;;;15.50;99.90;;;;;;5074537;28;20386;-81
2022/09/29 06:48:58;;;;;;;4.93;0.80;;;15.50;99.90;;;;;;5074278;28;20389;-79
2022/09/29 06:51:26;;;;;;;4.82;0.90;;;15.50;99.90;;;;;;5070439;28;20382;-82
2022/09/29 06:53:53;;;;;;;6.65;1.10;;;15.50;99.90;;;;;;5074360;28;20394;-83
2022/09/29 06:56:21;;;;;;;3.47;1.02;;;15.50;99.90;;;;;;5073216;28;20390;-78
2022/09/29 06:58:48;;;;;;;4.47;0.90;;;15.40;99.90;;;;;;5073724;28;20406;-80
2022/09/29 07:01:15;;;;;;;7.13;1.17;;;15.40;99.90;;;;;;5080697;28;20388;-80
2022/09/29 07:03:42;;;;;;;5.10;1.20;;;15.30;99.90;;;;;;5065327;28;20742;-81
2022/09/29 07:06:10;;;;;;;7.25;1.50;;;15.30;99.90;;;;;;5070934;28;20431;-79
2022/09/29 07:08:38;;;;;;;7.55;1.42;;;15.30;99.90;;;;;;5054094;28;20901;-80
2022/09/29 07:11:09;;;;;;;7.35;1.35;;;15.20;99.90;;;;;;5072387;28;20392;-81
2022/09/29 07:13:37;;;;;;;7.57;1.38;;;15.20;99.90;;;;;;5073867;28;20904;-78
2022/09/29 07:16:09;;;;;;;6.68;1.60;;;15.10;99.90;;;;;;5077309;28;20734;-79
2022/09/29 07:18:38;;;;;;;5.30;1.00;;;15.10;99.90;;;;;;5072824;28;20475;-82
2022/09/29 07:21:08;;;;;;;6.63;1.30;;;15.10;99.90;;;;;;5072542;28;20382;-81
2022/09/29 07:23:36;;;;;;;6.40;1.40;;;15.10;99.90;;;;;;5071978;28;20780;-80
2022/09/29 07:26:06;;;;;;;8.55;1.60;;;15.20;99.90;;;;;;5071487;28;20470;-81
2022/09/29 07:28:33;;;;;;;4.30;1.30;;;15.20;99.90;;;;;;5071748;28;20390;-79
2022/09/29 07:31:06;;;;;;;7.97;1.50;;;15.30;99.90;;;;;;5073838;28;20389;-84
2022/09/29 07:33:33;;;;;;;9.85;2.00;;;15.30;99.90;;;;;;5076502;28;20404;-79
2022/09/29 07:36:01;;;;;;;11.90;1.80;;;15.10;99.90;;;;;;5075801;28;21110;-80
2022/09/29 07:38:29;;;;;;;10.65;2.35;;;15.10;99.90;;;;;;5073438;28;20432;-79
2022/09/29 07:41:04;;;;;;;11.65;2.47;;;15.10;99.90;;;;;;5074070;28;20874;-79
2022/09/29 07:43:31;;;;;;;11.52;2.22;;;15.10;99.90;;;;;;5071984;28;20494;-79
2022/09/29 07:46:03;;;;;;;14.93;2.37;;;15.00;99.90;;;;;;5072248;28;20885;-80
2022/09/29 07:48:31;;;;;;;9.32;2.25;;;15.00;99.90;;;;;;5072037;28;20812;-78
2022/09/29 07:51:18;;;;;;;11.70;2.35;;;15.00;99.90;;;;;;5053434;28;20881;-81
2022/09/29 07:53:46;;;;;;;11.02;2.20;;;15.00;99.90;;;;;;5068151;28;20397;-80
2022/09/29 07:56:17;;;;;;;9.65;2.10;;;15.00;99.90;;;;;;5071729;28;20457;-80
2022/09/29 07:58:48;;;;;;;8.85;1.95;;;15.00;99.90;;;;;;5071008;28;20467;-80
2022/09/29 08:01:17;;;;;;;10.57;2.25;;;15.00;99.90;;;;;;5071338;28;20393;-80
2022/09/29 08:03:49;;;;;;;10.48;2.15;;;15.00;99.90;;;;;;5070804;28;20398;-82
2022/09/29 08:06:16;;;;;;;8.63;2.25;;;15.00;99.90;;;;;;5071884;28;20374;-83
2022/09/29 08:08:43;;;;;;;10.52;2.05;;;15.10;99.90;;;;;;5070833;28;20457;-81
2022/09/29 08:11:13;;;;;;;4.88;0.90;;;15.10;99.90;;;;;;5070499;28;20830;-80
2022/09/29 08:13:41;;;;;;;3.80;0.95;;;15.10;99.90;;;;;;5071056;28;20973;-81
2022/09/29 08:16:12;;;;;;;2.85;0.90;;;14.90;99.90;;;;;;5069457;28;20793;-81
2022/09/29 08:18:40;;;;;;;3.37;0.93;;;14.90;99.90;;;;;;5070885;28;20742;-81
2022/09/29 08:21:07;;;;;;;1.70;0.50;;;14.70;99.90;;;;;;5068617;28;20426;-80
2022/09/29 08:23:38;;;;;;;1.90;0.57;;;14.70;99.90;;;;;;5075130;28;20465;-80
2022/09/29 08:26:06;;;;;;;1.50;0.50;;;14.70;99.90;;;;;;5071865;28;20843;-81
2022/09/29 08:28:35;;;;;;;3.10;0.60;;;14.70;99.90;;;;;;5071108;28;20378;-80
2022/09/29 08:31:14;;;;;;;2.80;0.70;;;14.60;99.90;;;;;;5071701;28;20390;-80
2022/09/29 08:33:41;;;;;;;2.40;0.70;;;14.60;99.90;;;;;;5070708;28;20381;-80
2022/09/29 08:36:15;;;;;;;2.97;0.70;;;14.60;99.90;;;;;;5067568;28;20397;-80
2022/09/29 08:38:49;;;;;;;1.92;0.60;;;14.60;99.90;;;;;;5070339;28;20805;-81
2022/09/29 08:41:34;;;;;;;2.72;0.70;;;14.60;99.90;;;;;;5070391;28;20389;-80
2022/09/29 08:44:06;;;;;;;2.47;0.80;;;14.60;99.90;;;;;;5070687;28;20854;-80
2022/09/29 08:46:38;;;;;;;3.08;0.80;;;14.70;99.90;;;;;;5071240;28;20405;-81
2022/09/29 08:49:15;;;;;;;3.75;0.88;;;14.70;99.90;;;;;;5052949;28;20382;-80
2022/09/29 08:51:49;;;;;;;3.38;1.10;;;14.70;99.90;;;;;;5073122;28;20449;-81
2022/09/29 08:54:32;;;;;;;5.90;1.17;;;14.70;99.90;;;;;;5073117;28;20374;-80
2022/09/29 08:57:01;;;;;;;5.05;1.27;;;14.80;99.90;;;;;;5072289;28;20924;-80
2022/09/29 08:59:29;;;;;;;4.63;1.30;;;14.80;99.90;;;;;;5072377;28;20445;-80
2022/09/29 09:02:17;;;;;;;4.45;1.40;;;14.90;99.90;;;;;;5072085;28;20370;-80
2022/09/29 09:05:00;;;;;;;4.72;1.40;;;14.80;99.90;;;;;;5061668;28;20865;-80
2022/09/29 09:07:38;;;;;;;7.10;1.50;;;14.80;99.90;;;;;;5054063;28;20421;-79
2022/09/29 09:10:16;;;;;;;8.48;1.42;;;14.70;99.90;;;;;;5053804;28;20484;-82
2022/09/29 09:12:56;;;;;;;6.43;1.20;;;14.80;99.90;;;;;;5072019;28;20390;-85
2022/09/29 09:15:50;;;;;;;6.18;1.30;;;14.80;99.90;;;;;;5071962;28;20455;-86
2022/09/29 09:18:23;;;;;;;5.07;1.20;;;14.90;99.90;;;;;;5072180;28;20496;-83
2022/09/29 09:21:07;;;;;;;5.85;1.50;;;15.00;99.90;;;;;;5072907;28;20378;-82
2022/09/29 09:24:10;;;;;;;3.42;1.15;;;14.90;99.90;;;;;;5063888;28;20881;-84
2022/09/29 09:26:46;;;;;;;3.63;1.17;;;14.80;99.90;;;;;;4989481;28;20900;-80
2022/09/29 09:29:39;;;;;;;5.60;1.17;;;14.80;99.90;;;;;;4997100;28;20392;-82
2022/09/29 09:32:11;;;;;;;5.43;1.50;;;14.90;99.90;;;;;;4989672;28;20404;-83
2022/09/29 09:34:47;;;;;;;4.18;1.20;;;14.90;99.90;;;;;;4997395;28;20514;-80
2022/09/29 09:37:52;;;;;;;3.20;1.00;;;14.80;99.90;;;;;;4987029;28;20785;-82
2022/09/29 09:40:42;;;;;;;4.55;1.10;;;14.90;99.90;;;;;;4931795;29;20409;-81
2022/09/29 09:43:19;;;;;;;3.40;1.00;;;15.00;99.90;;;;;;4936109;29;20489;-81
2022/09/29 09:45:54;;;;;;;4.70;1.00;;;15.00;99.90;;;;;;4934743;29;20498;-79
2022/09/29 09:48:41;;;;;;;2.90;0.95;;;15.00;99.90;;;;;;4933649;29;20553;-80
2022/09/29 09:51:38;;;;;;;2.08;0.90;;;15.00;99.90;;;;;;4933324;29;20430;-80
2022/09/29 09:54:30;;;;;;;2.88;0.80;;;15.10;99.90;;;;;;4943294;29;20401;-79
2022/09/29 09:57:02;;;;;;;3.40;0.90;;;15.10;99.90;;;;;;4934055;29;20397;-80
2022/09/29 10:00:03;;;;;;;7.37;1.10;;;15.10;99.90;;;;;;4935692;29;20413;-80
2022/09/29 10:02:31;;;;;;;5.60;1.15;;;15.00;99.90;;;;;;4952772;28;20999;-80
2022/09/29 10:04:58;;;;;;;4.97;1.00;;;15.00;99.90;;;;;;5008933;28;20981;-80
2022/09/29 10:07:28;;;;;;;7.82;1.13;;;15.00;99.90;;;;;;5011026;28;20395;-80
2022/09/29 10:10:00;;;;;;;6.88;1.17;;;15.00;99.90;;;;;;5010275;28;20527;-80
2022/09/29 10:12:27;;;;;;;7.10;1.20;;;14.90;99.90;;;;;;5007389;28;20780;-82
2022/09/29 10:15:13;;;;;;;6.45;1.25;;;15.00;99.90;;;;;;5058292;28;20471;-80
2022/09/29 10:17:46;;;;;;;5.68;1.00;;;14.90;99.90;;;;;;5068094;28;21205;-80
2022/09/29 10:20:13;;;;;;;5.25;1.30;;;14.90;99.90;;;;;;5072232;28;20390;-81
2022/09/29 10:22:40;;;;;;;5.07;1.10;;;14.80;99.90;;;;;;5074248;28;20382;-81
2022/09/29 10:25:20;;;;;;;8.48;1.27;;;14.80;99.90;;;;;;5074361;28;20738;-83
2022/09/29 10:27:54;;;;;;;4.93;1.20;;;14.70;99.90;;;;;;5075162;28;20385;-82
2022/09/29 10:30:27;;;;;;;5.77;1.13;;;14.70;99.90;;;;;;5075362;28;20374;-83
2022/09/29 10:33:00;;;;;;;9.38;1.20;;;14.70;99.90;;;;;;5075030;28;20405;-82
2022/09/29 10:35:40;;;;;;;4.10;1.00;;;14.70;99.90;;;;;;5074163;28;20392;-81
2022/09/29 10:38:27;;;;;;;4.32;1.20;;;14.70;99.90;;;;;;5076673;28;20393;-82
2022/09/29 10:41:02;;;;;;;2.83;0.90;;;14.70;99.90;;;;;;5074159;28;20394;-81
2022/09/29 10:43:38;;;;;;;3.88;0.93;;;14.70;99.90;;;;;;5064937;28;20865;-81
2022/09/29 10:46:38;;;;;;;4.80;1.08;;;14.70;99.90;;;;;;5075636;28;20394;-81
2022/09/29 10:49:18;;;;;;;8.10;1.33;;;14.70;99.90;;;;;;5077097;28;20386;-82
2022/09/29 10:52:05;;;;;;;7.35;1.40;;;14.70;99.90;;;;;;5076533;28;20393;-82
2022/09/29 10:54:39;;;;;;;9.15;1.55;;;14.70;99.90;;;;;;5056719;28;20458;-82
2022/09/29 10:57:22;;;;;;;6.32;1.10;;;14.60;99.90;;;;;;5074165;28;20382;-82
2022/09/29 10:59:52;;;;;;;7.30;1.40;;;14.60;99.90;;;;;;5072777;28;20409;-80
2022/09/29 11:02:39;;;;;;;12.40;1.60;;;14.60;99.90;;;;;;5074942;28;20405;-83
2022/09/29 11:05:19;;;;;;;7.43;1.33;;;14.50;99.90;;;;;;5060050;28;20873;-81
2022/09/29 11:07:49;;;;;;;6.95;1.40;;;14.50;99.90;;;;;;5075482;28;20386;-82
2022/09/29 11:10:35;;;;;;;6.22;1.20;;;14.40;99.90;;;;;;5074837;28;20385;-81
2022/09/29 11:13:23;;;;;;;4.78;1.20;;;14.40;99.90;;;;;;5072841;28;20386;-82
2022/09/29 11:15:51;;;;;;;4.93;1.10;;;14.40;99.90;;;;;;5073469;28;20401;-82
2022/09/29 11:18:28;;;;;;;3.58;1.10;;;14.40;99.90;;;;;;5065753;28;20434;-80
2022/09/29 11:21:37;;;;;;;6.13;1.30;;;14.50;99.90;;;;;;5074766;28;20386;-80
2022/09/29 11:24:28;;;;;;;3.75;0.90;;;14.50;99.90;;;;;;5043900;28;21219;-79
2022/09/29 11:27:16;;;;;;;3.47;1.08;;;14.50;99.90;;;;;;5073499;28;20443;-79
2022/09/29 11:30:16;;;;;;;3.40;1.10;;;14.40;99.90;;;;;;5074025;28;20366;-80
2022/09/29 11:33:03;;;;;;;4.20;1.08;;;14.40;99.90;;;;;;5080505;28;20388;-82
2022/09/29 11:36:08;;;;;;;5.40;1.10;;;14.40;99.90;;;;;;5068070;28;20771;-83
2022/09/29 11:38:48;;;;;;;4.32;1.10;;;14.40;99.90;;;;;;5001788;28;20407;-83
2022/09/29 11:41:31;;;;;;;5.40;1.23;;;14.40;99.90;;;;;;4991429;28;20388;-80
2022/09/29 11:44:19;;;;;;;4.15;1.13;;;14.30;99.90;;;;;;4990775;28;20427;-80
2022/09/29 11:47:33;;;;;;;5.80;1.27;;;14.20;99.90;;;;;;4991681;28;20420;-83
2022/09/29 11:50:17;;;;;;;4.20;1.10;;;14.10;99.90;;;;;;4974655;28;20890;-81
2022/09/29 11:52:58;;;;;;;6.93;1.33;;;14.00;99.90;;;;;;4973688;28;20386;-81
2022/09/29 11:56:18;;;;;;;5.57;1.30;;;13.90;99.90;;;;;;4978847;28;20490;-83
2022/09/29 11:59:03;;;;;;;6.90;1.40;;;13.90;99.90;;;;;;4946385;29;20425;-84
2022/09/29 12:01:46;;;;;;;6.13;1.20;;;13.90;99.90;;;;;;4943770;29;20398;-84
2022/09/29 12:04:16;;;;;;;6.95;1.55;;;13.80;99.90;;;;;;4941709;29;20397;-83
2022/09/29 12:06:46;;;;;;;6.68;1.55;;;13.80;99.90;;;;;;4938800;29;20401;-84
2022/09/29 12:09:39;;;;;;;9.15;1.60;;;13.80;99.90;;;;;;4937467;29;20472;-82
2022/09/29 12:12:37;;;;;;;9.73;1.50;;;13.70;99.90;;;;;;4936829;29;20385;-81
2022/09/29 12:15:48;;;;;;;8.45;1.60;;;13.80;99.90;;;;;;4922675;29;20473;-84
2022/09/29 12:18:38;;;;;;;7.88;1.67;;;13.90;99.90;;;;;;4957189;29;20432;-81
2022/09/29 12:21:08;;;;;;;6.57;1.40;;;13.90;99.90;;;;;;4956978;29;20861;-83
2022/09/29 12:23:38;;;;;;;5.43;1.50;;;13.90;99.90;;;;;;4954719;28;20411;-83
2022/09/29 12:26:34;;;;;;;6.18;1.60;;;14.00;99.90;;;;;;4961204;28;20387;-83
2022/09/29 12:29:28;;;;;;;6.90;1.70;;;14.10;99.90;;;;;;4973550;28;20482;-83
2022/09/29 12:31:57;;;;;;;5.28;1.48;;;14.10;99.90;;;;;;4980661;28;20526;-83
2022/09/29 12:34:35;;;;;;;6.60;1.42;;;14.20;99.90;;;;;;5031905;28;20392;-83
2022/09/29 12:37:11;;;;;;;5.53;1.48;;;14.30;99.90;;;;;;5016835;28;20453;-83
2022/09/29 12:39:59;;;;;;;8.35;1.55;;;14.30;99.90;;;;;;5035448;28;20412;-82
2022/09/29 12:43:02;;;;;;;8.57;1.67;;;14.30;99.90;;;;;;5029537;28;20512;-84
2022/09/29 12:45:38;;;;;;;14.25;1.90;;;14.30;99.90;;;;;;5028127;28;20397;-83
2022/09/29 12:48:11;;;;;;;9.93;1.80;;;14.40;99.90;;;;;;5018990;28;20397;-82
2022/09/29 12:50:40;;;;;;;13.93;2.05;;;14.40;99.90;;;;;;5028617;28;20847;-84
2022/09/29 12:53:21;;;;;;;12.20;2.05;;;14.40;99.90;;;;;;5028017;28;20397;-84
2022/09/29 12:56:01;;;;;;;9.27;1.90;;;14.50;99.90;;;;;;5025747;28;20406;-83
2022/09/29 12:58:37;;;;;;;7.50;1.80;;;14.40;99.90;;;;;;5023855;28;20906;-83
2022/09/29 13:01:15;;;;;;;6.00;1.30;;;14.50;99.90;;;;;;5027088;28;20481;-83
2022/09/29 13:04:13;;;;;;;8.67;1.77;;;14.50;99.90;;;;;;5025252;28;20411;-86
2022/09/29 13:07:04;;;;;;;5.85;1.60;;;14.40;99.90;;;;;;5009224;28;20488;-83
2022/09/29 13:09:56;;;;;;;11.57;1.80;;;14.40;99.90;;;;;;5009441;28;20485;-83
2022/09/29 13:12:30;;;;;;;7.30;1.67;;;14.40;99.90;;;;;;5010729;28;20387;-83
2022/09/29 13:15:06;;;;;;;10.98;1.70;;;14.40;99.90;;;;;;4996416;28;20383;-84
2022/09/29 13:17:54;;;;;;;9.00;1.60;;;14.40;99.90;;;;;;5010403;28;20387;-83
2022/09/29 13:21:17;;;;;;;9.88;1.70;;;14.30;99.90;;;;;;5009833;28;20399;-84
2022/09/29 13:23:52;;;;;;;6.50;1.55;;;14.30;99.90;;;;;;4960782;28;20407;-85
2022/09/29 13:27:03;;;;;;;6.20;1.50;;;14.20;99.90;;;;;;4967178;28;20437;-83